Time,TemperatureF,DewpointF,PressureIn,WindDirection,WindDirectionDegrees,WindSpeedMPH,WindSpeedGustMPH,Humidity,HourlyPrecipIn,Conditions,Clouds,dailyrainin,SoftwareType,DateUTC
2017-05-29 00:00:00,64.3,61.9,29.82,WSW,250,0.0,0.0,92,0.01,,,0.04,vanprod-2.5,2017-05-29 04:00:00,
2017-05-29 00:05:00,64.2,61.8,29.82,WSW,252,0.0,0.0,92,0.01,,,0.04,vanprod-2.5,2017-05-29 04:05:00,
2017-05-29 00:10:00,64.1,61.7,29.82,WSW,242,0.0,2.0,92,0.00,,,0.00,vanprod-2.5,2017-05-29 04:10:00,
2017-05-29 00:15:00,64.1,61.7,29.82,SW,233,0.0,2.0,92,0.00,,,0.00,vanprod-2.5,2017-05-29 04:15:00,
2017-05-29 00:20:00,64.0,61.6,29.83,WSW,257,0.0,1.0,92,0.00,,,0.00,vanprod-2.5,2017-05-29 04:20:00,
2017-05-29 00:25:00,63.9,61.8,29.82,WSW,247,0.0,1.0,93,0.00,,,0.00,vanprod-2.5,2017-05-29 04:25:00,
2017-05-29 00:30:00,63.8,61.7,29.82,SW,233,1.0,2.0,93,0.00,,,0.00,vanprod-2.5,2017-05-29 04:30:00,
2017-05-29 00:35:00,63.7,61.6,29.82,WSW,241,0.0,1.0,93,0.00,,,0.00,vanprod-2.5,2017-05-29 04:35:00,
2017-05-29 00:40:00,63.6,61.5,29.81,WSW,257,0.0,1.0,93,0.00,,,0.00,vanprod-2.5,2017-05-29 04:40:00,
2017-05-29 00:45:00,63.5,61.4,29.81,WSW,253,0.0,1.0,93,0.00,,,0.00,vanprod-2.5,2017-05-29 04:45:00,
2017-05-29 00:50:00,63.4,61.3,29.80,West,268,0.0,0.0,93,0.00,,,0.00,vanprod-2.5,2017-05-29 04:50:00,
2017-05-29 00:55:00,63.3,61.2,29.80,WNW,285,0.0,1.0,93,0.00,,,0.00,vanprod-2.5,2017-05-29 04:55:00,
2017-05-29 01:00:00,63.2,61.1,29.80,West,276,0.0,0.0,93,0.00,,,0.00,vanprod-2.5,2017-05-29 05:00:00,
2017-05-29 01:05:00,63.0,60.9,29.81,WSW,250,0.0,0.0,93,0.00,,,0.00,vanprod-2.5,2017-05-29 05:05:00,
2017-05-29 01:10:00,63.0,61.3,29.82,WSW,254,0.0,0.0,94,0.00,,,0.00,vanprod-2.5,2017-05-29 05:10:00,
2017-05-29 01:15:00,62.9,61.2,29.82,WSW,251,0.0,1.0,94,0.00,,,0.00,vanprod-2.5,2017-05-29 05:15:00,
2017-05-29 01:20:00,62.8,61.1,29.83,WSW,255,0.0,0.0,94,0.00,,,0.00,vanprod-2.5,2017-05-29 05:20:00,
2017-05-29 01:25:00,62.7,61.0,29.83,WSW,242,0.0,1.0,94,0.00,,,0.00,vanprod-2.5,2017-05-29 05:25:00,
2017-05-29 01:30:00,62.6,60.9,29.83,WSW,241,0.0,1.0,94,0.00,,,0.00,vanprod-2.5,2017-05-29 05:30:00,
2017-05-29 01:35:00,62.5,60.8,29.83,West,274,0.0,0.0,94,0.00,,,0.00,vanprod-2.5,2017-05-29 05:35:00,
2017-05-29 01:40:00,62.4,60.7,29.83,West,260,0.0,1.0,94,0.00,,,0.00,vanprod-2.5,2017-05-29 05:40:00,
2017-05-29 01:45:00,62.4,61.0,29.83,WSW,238,0.0,0.0,95,0.00,,,0.00,vanprod-2.5,2017-05-29 05:45:00,
2017-05-29 01:50:00,62.3,60.9,29.83,WSW,251,0.0,0.0,95,0.00,,,0.00,vanprod-2.5,2017-05-29 05:50:00,
2017-05-29 01:55:00,62.2,60.8,29.83,WSW,249,0.0,1.0,95,0.00,,,0.00,vanprod-2.5,2017-05-29 05:55:00,
2017-05-29 02:00:00,62.1,60.7,29.83,WSW,239,0.0,0.0,95,0.00,,,0.00,vanprod-2.5,2017-05-29 06:00:00,
2017-05-29 02:05:00,61.9,60.5,29.84,West,263,0.0,0.0,95,0.00,,,0.00,vanprod-2.5,2017-05-29 06:05:00,
2017-05-29 02:10:00,61.8,60.4,29.84,WSW,238,0.0,1.0,95,0.00,,,0.00,vanprod-2.5,2017-05-29 06:10:00,
2017-05-29 02:15:00,61.8,60.4,29.84,SW,235,0.0,0.0,95,0.00,,,0.00,vanprod-2.5,2017-05-29 06:15:00,
2017-05-29 02:20:00,61.7,60.3,29.84,WSW,241,0.0,1.0,95,0.00,,,0.00,vanprod-2.5,2017-05-29 06:20:00,
2017-05-29 02:25:00,61.6,60.2,29.85,WSW,245,0.0,1.0,95,0.00,,,0.00,vanprod-2.5,2017-05-29 06:25:00,
2017-05-29 02:30:00,61.6,60.2,29.85,WSW,239,0.0,0.0,95,0.00,,,0.00,vanprod-2.5,2017-05-29 06:30:00,
2017-05-29 02:35:00,61.4,60.0,29.85,WSW,247,0.0,0.0,95,0.00,,,0.00,vanprod-2.5,2017-05-29 06:35:00,
2017-05-29 02:40:00,61.4,60.0,29.85,WSW,240,0.0,0.0,95,0.00,,,0.00,vanprod-2.5,2017-05-29 06:40:00,
2017-05-29 02:45:00,61.3,59.9,29.85,WSW,237,0.0,0.0,95,0.00,,,0.00,vanprod-2.5,2017-05-29 06:45:00,
2017-05-29 02:50:00,61.1,60.0,29.85,WSW,240,0.0,0.0,96,0.00,,,0.00,vanprod-2.5,2017-05-29 06:50:00,
2017-05-29 02:55:00,61.0,59.9,29.85,WSW,244,0.0,1.0,96,0.00,,,0.00,vanprod-2.5,2017-05-29 06:55:00,
2017-05-29 03:00:00,60.9,59.8,29.85,SW,235,0.0,0.0,96,0.00,,,0.00,vanprod-2.5,2017-05-29 07:00:00,
2017-05-29 03:05:00,60.8,59.7,29.85,WSW,245,0.0,0.0,96,0.00,,,0.00,vanprod-2.5,2017-05-29 07:05:00,
2017-05-29 03:10:00,60.8,59.7,29.85,SW,232,0.0,0.0,96,0.00,,,0.00,vanprod-2.5,2017-05-29 07:10:00,
2017-05-29 03:15:00,60.7,59.6,29.85,WSW,239,0.0,0.0,96,0.00,,,0.00,vanprod-2.5,2017-05-29 07:15:00,
2017-05-29 03:20:00,60.6,59.5,29.84,WSW,237,0.0,0.0,96,0.00,,,0.00,vanprod-2.5,2017-05-29 07:20:00,
2017-05-29 03:25:00,60.7,59.6,29.84,WSW,239,0.0,0.0,96,0.00,,,0.00,vanprod-2.5,2017-05-29 07:25:00,
2017-05-29 03:30:00,60.6,59.5,29.84,WSW,244,0.0,0.0,96,0.00,,,0.00,vanprod-2.5,2017-05-29 07:30:00,
2017-05-29 03:35:00,60.5,59.4,29.84,WSW,251,0.0,0.0,96,0.00,,,0.00,vanprod-2.5,2017-05-29 07:35:00,
2017-05-29 03:40:00,60.5,59.4,29.84,WSW,244,0.0,0.0,96,0.00,,,0.00,vanprod-2.5,2017-05-29 07:40:00,
2017-05-29 03:45:00,60.4,59.3,29.84,SW,235,0.0,0.0,96,0.00,,,0.00,vanprod-2.5,2017-05-29 07:45:00,
2017-05-29 03:50:00,60.3,59.2,29.83,WSW,242,0.0,0.0,96,0.00,,,0.00,vanprod-2.5,2017-05-29 07:50:00,
2017-05-29 03:55:00,60.3,59.2,29.83,WSW,238,0.0,0.0,96,0.00,,,0.00,vanprod-2.5,2017-05-29 07:55:00,
2017-05-29 04:00:00,60.2,59.1,29.84,WSW,241,0.0,0.0,96,0.00,,,0.00,vanprod-2.5,2017-05-29 08:00:00,
2017-05-29 04:05:00,60.2,59.1,29.84,WSW,246,0.0,0.0,96,0.00,,,0.00,vanprod-2.5,2017-05-29 08:05:00,
2017-05-29 04:10:00,60.2,59.1,29.84,WSW,238,0.0,0.0,96,0.00,,,0.00,vanprod-2.5,2017-05-29 08:10:00,
2017-05-29 04:15:00,60.1,59.0,29.84,WSW,239,0.0,1.0,96,0.00,,,0.00,vanprod-2.5,2017-05-29 08:15:00,
2017-05-29 04:20:00,60.1,59.0,29.84,West,263,0.0,0.0,96,0.00,,,0.00,vanprod-2.5,2017-05-29 08:20:00,
2017-05-29 04:25:00,60.1,59.0,29.84,WSW,242,0.0,0.0,96,0.00,,,0.00,vanprod-2.5,2017-05-29 08:25:00,
2017-05-29 04:30:00,60.1,59.0,29.84,WSW,245,0.0,0.0,96,0.00,,,0.00,vanprod-2.5,2017-05-29 08:30:00,
2017-05-29 04:35:00,60.1,59.0,29.84,WSW,247,0.0,0.0,96,0.00,,,0.00,vanprod-2.5,2017-05-29 08:35:00,
2017-05-29 04:40:00,60.1,59.2,29.85,WSW,251,0.0,0.0,97,0.00,,,0.00,vanprod-2.5,2017-05-29 08:40:00,
2017-05-29 04:45:00,60.2,59.3,29.85,WSW,249,0.0,1.0,97,0.00,,,0.00,vanprod-2.5,2017-05-29 08:45:00,
2017-05-29 04:50:00,60.2,59.3,29.85,WSW,241,0.0,1.0,97,0.00,,,0.00,vanprod-2.5,2017-05-29 08:50:00,
2017-05-29 04:55:00,60.2,59.3,29.85,WSW,238,0.0,0.0,97,0.00,,,0.00,vanprod-2.5,2017-05-29 08:55:00,
2017-05-29 05:00:00,60.3,59.4,29.85,SW,236,0.0,0.0,97,0.00,,,0.00,vanprod-2.5,2017-05-29 09:00:00,
2017-05-29 05:05:00,60.3,59.4,29.85,WSW,244,0.0,0.0,97,0.00,,,0.00,vanprod-2.5,2017-05-29 09:05:00,
2017-05-29 05:10:00,60.3,59.4,29.86,WSW,249,0.0,0.0,97,0.00,,,0.00,vanprod-2.5,2017-05-29 09:10:00,